createdAt,value
2023-05-02T00:02:04.087Z,9.00
2023-05-02T00:04:30.888Z,9.17
2023-05-02T00:06:57.608Z,11.53
2023-05-02T00:09:24.206Z,11.40
2023-05-02T00:11:50.731Z,10.17
2023-05-02T00:14:17.228Z,9.63
2023-05-02T00:16:43.721Z,9.30
2023-05-02T00:19:10.271Z,8.83
2023-05-02T00:21:36.792Z,8.07
2023-05-02T00:24:03.364Z,8.70
2023-05-02T00:26:29.998Z,9.17
2023-05-02T00:28:56.491Z,8.60
2023-05-02T00:31:23.031Z,8.17
2023-05-02T00:33:49.591Z,7.73
2023-05-02T00:36:16.710Z,7.93
2023-05-02T00:38:44.535Z,7.97
2023-05-02T00:41:11.285Z,6.63
2023-05-02T00:43:39.560Z,7.20
2023-05-02T00:46:07.719Z,8.60
2023-05-02T00:48:34.908Z,7.90
2023-05-02T00:51:05.008Z,8.87
2023-05-02T00:53:31.997Z,9.60
2023-05-02T00:55:59.134Z,8.20
2023-05-02T00:58:26.727Z,8.43
2023-05-02T01:00:56.576Z,7.33
2023-05-02T01:03:42.234Z,8.00
2023-05-02T01:06:31.912Z,7.83
2023-05-02T01:09:22.073Z,9.40
2023-05-02T01:12:04.456Z,8.53
2023-05-02T01:14:35.101Z,8.90
2023-05-02T01:17:08.211Z,8.50
2023-05-02T01:19:50.904Z,8.20
2023-05-02T01:22:20.074Z,8.10
2023-05-02T01:25:18.803Z,8.47
2023-05-02T01:28:03.946Z,8.97
2023-05-02T01:30:33.949Z,8.17
2023-05-02T01:33:02.254Z,8.70
2023-05-02T01:35:32.858Z,9.27
2023-05-02T01:38:01.203Z,8.90
2023-05-02T01:40:29.788Z,7.60
2023-05-02T01:42:59.359Z,9.10
2023-05-02T01:45:28.055Z,8.60
2023-05-02T01:47:55.013Z,9.00
2023-05-02T01:50:24.732Z,8.50
2023-05-02T01:52:55.628Z,8.37
2023-05-02T01:55:24.391Z,8.37
2023-05-02T01:57:54.248Z,8.00
2023-05-02T02:00:21.493Z,8.20
2023-05-02T02:02:49.726Z,7.50
2023-05-02T02:05:19.412Z,8.00
2023-05-02T02:07:46.585Z,7.40
2023-05-02T02:10:13.255Z,6.80
2023-05-02T02:12:45.234Z,6.50
2023-05-02T02:15:21.103Z,6.73
2023-05-02T02:17:58.965Z,7.37
2023-05-02T02:20:28.906Z,6.90
2023-05-02T02:22:57.688Z,6.80
2023-05-02T02:25:25.606Z,7.30
2023-05-02T02:27:52.343Z,7.07
2023-05-02T02:30:18.906Z,7.13
2023-05-02T02:32:45.468Z,6.60
2023-05-02T02:35:11.999Z,7.10
2023-05-02T02:37:47.242Z,8.37
2023-05-02T02:40:17.536Z,8.50
2023-05-02T02:43:16.434Z,10.40
2023-05-02T02:45:51.785Z,8.50
2023-05-02T02:48:47.954Z,8.57
2023-05-02T02:51:28.713Z,9.10
2023-05-02T02:54:26.883Z,9.50
2023-05-02T02:57:16.604Z,7.87
2023-05-02T02:59:52.088Z,7.30
2023-05-02T03:02:22.560Z,7.60
2023-05-02T03:04:52.827Z,7.43
2023-05-02T03:07:19.316Z,7.30
2023-05-02T03:09:48.386Z,7.30
2023-05-02T03:12:20.198Z,7.20
2023-05-02T03:14:48.399Z,7.17
2023-05-02T03:17:14.876Z,6.47
2023-05-02T03:19:42.210Z,6.57
2023-05-02T03:22:08.724Z,6.80
2023-05-02T03:24:36.334Z,6.70
2023-05-02T03:27:04.503Z,6.97
2023-05-02T03:29:37.314Z,6.80
2023-05-02T03:32:04.031Z,6.50
2023-05-02T03:34:30.692Z,6.07
2023-05-02T03:36:57.405Z,6.10
2023-05-02T03:39:25.041Z,5.73
2023-05-02T03:41:51.502Z,6.10
2023-05-02T03:44:21.662Z,6.00
2023-05-02T03:46:48.526Z,6.37
2023-05-02T03:49:15.226Z,6.00
2023-05-02T03:51:44.386Z,5.47
2023-05-02T03:54:12.323Z,6.10
2023-05-02T03:56:42.821Z,5.93
2023-05-02T03:59:29.495Z,6.27
2023-05-02T04:01:56.631Z,6.80
2023-05-02T04:04:32.697Z,6.20
2023-05-02T04:06:59.850Z,7.00
2023-05-02T04:09:26.372Z,7.20
2023-05-02T04:11:57.958Z,7.57
2023-05-02T04:14:24.747Z,6.73
2023-05-02T04:16:53.378Z,6.63
2023-05-02T04:19:32.443Z,6.43
2023-05-02T04:21:59.487Z,6.93
2023-05-02T04:24:26.065Z,6.83
2023-05-02T04:26:52.700Z,7.33
2023-05-02T04:29:19.229Z,6.27
2023-05-02T04:31:46.056Z,7.20
2023-05-02T04:34:14.481Z,6.73
2023-05-02T04:36:47.364Z,7.30
2023-05-02T04:39:19.150Z,6.67
2023-05-02T04:41:55.826Z,6.93
2023-05-02T04:44:24.799Z,6.97
2023-05-02T04:46:52.990Z,7.57
2023-05-02T04:49:19.649Z,6.50
2023-05-02T04:51:46.476Z,7.20
2023-05-02T04:54:14.173Z,7.33
2023-05-02T04:56:42.527Z,6.30
2023-05-02T04:59:09.687Z,7.00
2023-05-02T05:01:36.550Z,5.77
2023-05-02T05:04:04.209Z,6.87
2023-05-02T05:06:31.983Z,6.30
2023-05-02T05:08:59.363Z,7.03
2023-05-02T05:11:26.356Z,7.07
2023-05-02T05:13:53.509Z,7.30
2023-05-02T05:16:20.404Z,7.17
2023-05-02T05:18:49.195Z,7.80
2023-05-02T05:21:15.792Z,8.20
2023-05-02T05:23:46.143Z,7.60
2023-05-02T05:26:16.694Z,7.90
2023-05-02T05:28:46.550Z,7.60
2023-05-02T05:31:17.081Z,8.23
2023-05-02T05:33:47.305Z,7.33
2023-05-02T05:36:14.957Z,8.07
2023-05-02T05:38:41.860Z,7.10
2023-05-02T05:41:11.004Z,7.40
2023-05-02T05:43:41.142Z,6.90
2023-05-02T05:46:07.886Z,7.27
2023-05-02T05:48:36.462Z,7.13
2023-05-02T05:51:06.307Z,7.40
2023-05-02T05:53:33.497Z,8.20
2023-05-02T05:56:10.242Z,7.30
2023-05-02T05:58:39.100Z,7.63
2023-05-02T06:01:07.176Z,6.80
2023-05-02T06:03:35.000Z,6.53
2023-05-02T06:06:01.852Z,6.53
2023-05-02T06:08:28.493Z,6.63
2023-05-02T06:10:54.973Z,6.30
2023-05-02T06:13:21.444Z,6.70
2023-05-02T06:15:49.251Z,7.10
2023-05-02T06:18:16.214Z,7.10
2023-05-02T06:20:43.015Z,8.50
2023-05-02T06:23:09.516Z,8.80
2023-05-02T06:25:39.131Z,9.80
2023-05-02T06:28:06.122Z,9.53
2023-05-02T06:30:32.588Z,10.00
2023-05-02T06:32:59.140Z,10.63
2023-05-02T06:35:25.734Z,11.97
2023-05-02T06:37:52.165Z,14.93
2023-05-02T06:40:21.751Z,17.53
2023-05-02T06:42:48.432Z,17.27
2023-05-02T06:45:15.012Z,18.70
2023-05-02T06:47:41.601Z,15.50
2023-05-02T06:50:08.612Z,14.03
2023-05-02T06:52:35.324Z,15.07
2023-05-02T06:55:01.807Z,16.37
2023-05-02T06:57:28.576Z,15.30
2023-05-02T06:59:55.057Z,14.30
2023-05-02T07:02:22.220Z,14.33
2023-05-02T07:04:48.793Z,16.53
2023-05-02T07:07:18.688Z,17.00
2023-05-02T07:09:45.224Z,18.03
2023-05-02T07:12:11.659Z,18.20
2023-05-02T07:14:38.278Z,17.63
2023-05-02T07:17:04.763Z,16.93
2023-05-02T07:19:31.269Z,17.13
2023-05-02T07:21:58.159Z,17.27
2023-05-02T07:24:24.660Z,17.17
2023-05-02T07:26:51.100Z,19.20
2023-05-02T07:29:17.552Z,20.10
2023-05-02T07:31:44.018Z,18.87
2023-05-02T07:34:10.564Z,20.43
2023-05-02T07:36:36.984Z,20.90
2023-05-02T07:39:03.567Z,21.93
2023-05-02T07:41:30.047Z,21.43
2023-05-02T07:43:57.599Z,22.07
2023-05-02T07:46:24.712Z,21.17
2023-05-02T07:48:51.233Z,22.07
2023-05-02T07:51:20.309Z,21.77
2023-05-02T07:53:47.341Z,22.67
2023-05-02T07:56:13.781Z,23.80
2023-05-02T07:58:40.388Z,23.73
2023-05-02T08:01:07.090Z,23.10
2023-05-02T08:03:33.670Z,21.23
2023-05-02T08:06:02.131Z,22.20
2023-05-02T08:08:28.674Z,23.97
2023-05-02T08:10:55.216Z,23.27
2023-05-02T08:13:21.660Z,23.00
2023-05-02T08:15:48.152Z,22.63
2023-05-02T08:18:14.919Z,22.90
2023-05-02T08:20:43.049Z,21.67
2023-05-02T08:23:09.476Z,21.00
2023-05-02T08:25:35.963Z,20.57
2023-05-02T08:28:02.528Z,18.50
2023-05-02T08:30:28.972Z,19.13
2023-05-02T08:32:55.529Z,17.57
2023-05-02T08:35:22.026Z,16.97
2023-05-02T08:37:48.770Z,16.60
2023-05-02T08:40:24.684Z,17.40
2023-05-02T08:42:57.347Z,17.50
2023-05-02T08:45:24.777Z,18.00
2023-05-02T08:47:53.026Z,17.50
2023-05-02T08:50:21.066Z,17.57
2023-05-02T08:52:49.497Z,19.20
2023-05-02T08:55:16.281Z,19.23
2023-05-02T08:57:43.596Z,20.40
2023-05-02T09:00:10.865Z,18.93
2023-05-02T09:02:53.303Z,19.63
2023-05-02T09:05:23.753Z,20.67
2023-05-02T09:07:51.593Z,19.90
2023-05-02T09:10:18.326Z,20.47
2023-05-02T09:12:44.857Z,20.67
2023-05-02T09:15:19.871Z,21.80
2023-05-02T09:17:48.648Z,21.43
2023-05-02T09:20:16.673Z,21.80
2023-05-02T09:22:52.973Z,21.67
2023-05-02T09:25:20.136Z,21.63
2023-05-02T09:27:54.360Z,21.47
2023-05-02T09:30:21.271Z,21.20
2023-05-02T09:32:50.996Z,20.77
2023-05-02T09:35:23.687Z,20.27
2023-05-02T09:37:54.801Z,18.33
2023-05-02T09:40:21.529Z,17.97
2023-05-02T09:42:48.021Z,17.40
2023-05-02T09:45:25.771Z,16.83
2023-05-02T09:47:53.149Z,15.83
2023-05-02T09:50:34.940Z,15.20
2023-05-02T09:53:06.872Z,16.13
2023-05-02T09:55:33.402Z,14.73
2023-05-02T09:58:00.934Z,14.10
2023-05-02T10:00:43.918Z,14.23
2023-05-02T10:03:11.605Z,12.03
2023-05-02T10:05:39.585Z,12.57
2023-05-02T10:08:07.627Z,12.27
2023-05-02T10:10:37.240Z,8.00
2023-05-02T10:13:05.565Z,7.53
2023-05-02T10:15:33.813Z,6.20
2023-05-02T10:18:06.556Z,7.93
2023-05-02T10:20:37.069Z,8.37
2023-05-02T10:23:04.732Z,10.00
2023-05-02T10:25:33.191Z,9.13
2023-05-02T10:27:59.785Z,10.00
2023-05-02T10:30:26.854Z,9.30
2023-05-02T10:32:54.521Z,9.53
2023-05-02T10:35:21.600Z,10.10
2023-05-02T10:37:49.771Z,10.23
2023-05-02T10:40:16.530Z,10.10
2023-05-02T10:42:47.873Z,10.37
2023-05-02T10:45:35.476Z,10.20
2023-05-02T10:48:25.277Z,10.47
2023-05-02T10:50:56.803Z,9.43
2023-05-02T10:53:33.633Z,7.37
2023-05-02T10:56:15.664Z,7.13
2023-05-02T10:58:43.830Z,6.60
2023-05-02T11:01:26.384Z,7.20
2023-05-02T11:03:56.700Z,6.47
2023-05-02T11:06:24.263Z,6.37
2023-05-02T11:08:51.352Z,6.67
2023-05-02T11:11:43.957Z,6.07
2023-05-02T11:14:11.599Z,6.17
2023-05-02T11:16:59.907Z,6.73
2023-05-02T11:19:29.206Z,6.03
2023-05-02T11:22:20.422Z,5.83
2023-05-02T11:24:48.373Z,5.20
2023-05-02T11:27:30.363Z,5.57
2023-05-02T11:30:01.929Z,6.17
2023-05-02T11:32:44.018Z,5.80
2023-05-02T11:35:18.165Z,5.43
2023-05-02T11:37:54.000Z,5.63
2023-05-02T11:40:20.610Z,5.57
2023-05-02T11:42:47.434Z,5.30
2023-05-02T11:45:14.043Z,4.80
2023-05-02T11:47:42.083Z,4.90
2023-05-02T11:50:12.078Z,5.07
2023-05-02T11:52:40.304Z,5.63
2023-05-02T11:55:10.421Z,5.23
2023-05-02T11:57:38.960Z,4.90
2023-05-02T12:00:06.804Z,4.60
2023-05-02T12:02:37.992Z,4.00
2023-05-02T12:05:08.071Z,3.83
2023-05-02T12:07:50.688Z,4.10
2023-05-02T12:10:17.151Z,3.77
2023-05-02T12:12:44.516Z,3.77
2023-05-02T12:15:13.041Z,3.37
2023-05-02T12:17:42.669Z,4.17
2023-05-02T12:20:10.775Z,3.90
2023-05-02T12:22:37.968Z,3.80
2023-05-02T12:25:05.940Z,3.70
2023-05-02T12:27:33.418Z,3.80
2023-05-02T12:30:00.610Z,17.90
2023-05-02T12:32:32.275Z,18.25
2023-05-02T12:34:59.639Z,15.33
2023-05-02T12:37:27.313Z,12.73
2023-05-02T12:39:55.537Z,10.70
2023-05-02T12:42:23.689Z,11.37
2023-05-02T12:44:54.733Z,11.80
2023-05-02T12:47:23.021Z,9.80
2023-05-02T12:49:54.422Z,12.37
2023-05-02T12:52:41.532Z,4.50
2023-05-02T12:55:18.626Z,3.67
2023-05-02T12:57:45.257Z,3.30
2023-05-02T13:00:12.420Z,3.13
2023-05-02T13:02:38.979Z,3.13
2023-05-02T13:05:15.600Z,2.83
2023-05-02T13:07:42.083Z,2.60
2023-05-02T13:10:09.544Z,2.03
2023-05-02T13:12:38.227Z,2.40
2023-05-02T13:15:06.626Z,2.17
2023-05-02T13:17:34.534Z,2.43
2023-05-02T13:20:02.426Z,2.50
2023-05-02T13:22:29.402Z,2.03
2023-05-02T13:24:55.935Z,2.40
2023-05-02T13:27:25.586Z,1.83
2023-05-02T13:29:52.366Z,2.27
2023-05-02T13:32:19.384Z,2.33
2023-05-02T13:34:45.942Z,1.97
2023-05-02T13:37:12.435Z,2.03
2023-05-02T13:39:38.871Z,2.20
2023-05-02T13:42:06.449Z,1.87
2023-05-02T13:44:33.275Z,2.10
2023-05-02T13:46:59.770Z,2.10
2023-05-02T13:49:26.328Z,1.93
2023-05-02T13:51:53.109Z,1.93
2023-05-02T13:54:19.602Z,2.40
2023-05-02T13:56:46.123Z,2.00
2023-05-02T13:59:12.589Z,2.50
2023-05-02T14:01:41.991Z,2.43
2023-05-02T14:04:09.102Z,2.37
2023-05-02T14:06:36.082Z,2.47
2023-05-02T14:09:05.493Z,2.20
2023-05-02T14:11:32.002Z,2.10
2023-05-02T14:13:59.737Z,2.20
2023-05-02T14:16:26.543Z,2.33
2023-05-02T14:18:53.022Z,2.17
2023-05-02T14:21:19.493Z,2.13
2023-05-02T14:23:46.054Z,2.20
2023-05-02T14:26:12.770Z,2.20
2023-05-02T14:28:40.440Z,1.93
2023-05-02T14:31:07.397Z,2.30
2023-05-02T14:33:33.945Z,2.93
2023-05-02T14:36:00.564Z,2.17
2023-05-02T14:38:27.347Z,2.07
2023-05-02T14:40:55.063Z,2.00
2023-05-02T14:43:21.575Z,1.77
2023-05-02T14:45:48.083Z,2.00
2023-05-02T14:48:16.959Z,2.30
2023-05-02T14:50:44.218Z,2.03
2023-05-02T14:53:11.852Z,2.23
2023-05-02T14:55:41.538Z,2.20
2023-05-02T14:58:10.320Z,1.60
2023-05-02T15:00:37.955Z,2.00
2023-05-02T15:03:07.950Z,2.20
2023-05-02T15:05:36.606Z,1.97
2023-05-02T15:08:03.226Z,2.07
2023-05-02T15:10:29.728Z,2.30
2023-05-02T15:12:56.226Z,2.00
2023-05-02T15:15:25.080Z,2.60
2023-05-02T15:17:52.849Z,5.80
2023-05-02T15:20:19.967Z,2.30
2023-05-02T15:22:46.524Z,2.13
2023-05-02T15:25:12.975Z,4.43
2023-05-02T15:27:39.479Z,2.80
2023-05-02T15:30:06.710Z,3.00
2023-05-02T15:32:33.393Z,3.50
2023-05-02T15:34:59.873Z,2.77
2023-05-02T15:37:26.481Z,2.90
2023-05-02T15:39:52.975Z,2.80
2023-05-02T15:42:19.580Z,2.97
2023-05-02T15:44:53.903Z,2.50
2023-05-02T15:47:22.182Z,2.30
2023-05-02T15:49:51.701Z,2.43
2023-05-02T15:52:18.362Z,2.17
2023-05-02T15:54:44.857Z,1.97
2023-05-02T15:57:12.667Z,2.20
2023-05-02T15:59:39.137Z,2.13
2023-05-02T16:02:05.760Z,1.93
2023-05-02T16:04:34.819Z,1.73
2023-05-02T16:07:02.123Z,1.90
2023-05-02T16:09:31.085Z,2.00
2023-05-02T16:11:57.930Z,2.03
2023-05-02T16:14:26.126Z,1.70
2023-05-02T16:16:52.664Z,1.73
2023-05-02T16:19:19.181Z,2.00
2023-05-02T16:21:45.941Z,2.27
2023-05-02T16:24:12.419Z,2.50
2023-05-02T16:26:38.990Z,2.33
2023-05-02T16:29:05.471Z,2.30
2023-05-02T16:31:32.145Z,2.17
2023-05-02T16:33:58.784Z,2.30
2023-05-02T16:36:26.348Z,2.13
2023-05-02T16:38:52.869Z,2.03
2023-05-02T16:41:19.344Z,1.90
2023-05-02T16:43:46.850Z,1.73
2023-05-02T16:46:13.426Z,2.10
2023-05-02T16:48:39.908Z,1.90
2023-05-02T16:51:06.389Z,2.20
2023-05-02T16:53:32.915Z,2.10
2023-05-02T16:55:59.699Z,2.30
2023-05-02T16:58:28.836Z,2.30
2023-05-02T17:00:56.113Z,2.63
2023-05-02T17:03:22.807Z,3.17
2023-05-02T17:05:49.374Z,2.97
2023-05-02T17:08:16.920Z,3.60
2023-05-02T17:10:48.583Z,3.90
2023-05-02T17:13:15.043Z,3.60
2023-05-02T17:15:41.934Z,3.77
2023-05-02T17:18:08.491Z,3.80
2023-05-02T17:20:36.030Z,4.10
2023-05-02T17:23:02.919Z,4.00
2023-05-02T17:25:30.416Z,3.97
2023-05-02T17:27:56.948Z,4.43
2023-05-02T17:30:25.130Z,4.30
2023-05-02T17:32:51.753Z,4.47
2023-05-02T17:35:18.358Z,4.70
2023-05-02T17:37:44.991Z,5.20
2023-05-02T17:40:14.411Z,5.30
2023-05-02T17:42:48.769Z,5.60
2023-05-02T17:45:17.787Z,5.00
2023-05-02T17:47:45.127Z,5.07
2023-05-02T17:50:18.633Z,4.70
2023-05-02T17:52:57.551Z,4.97
2023-05-02T17:55:35.927Z,5.00
2023-05-02T17:58:04.873Z,4.70
2023-05-02T18:00:31.614Z,5.10
2023-05-02T18:02:58.442Z,4.80
2023-05-02T18:05:28.150Z,6.40
2023-05-02T18:07:55.603Z,5.10
2023-05-02T18:10:22.148Z,5.20
2023-05-02T18:12:48.897Z,5.20
2023-05-02T18:15:15.381Z,5.07
2023-05-02T18:17:41.872Z,5.20
2023-05-02T18:20:09.997Z,5.43
2023-05-02T18:22:36.829Z,5.30
2023-05-02T18:25:04.179Z,4.90
2023-05-02T18:27:30.967Z,4.70
2023-05-02T18:29:57.567Z,5.70
2023-05-02T18:32:25.749Z,5.67
2023-05-02T18:34:52.259Z,5.40
2023-05-02T18:37:18.751Z,5.80
2023-05-02T18:39:45.232Z,5.87
2023-05-02T18:42:13.048Z,6.17
2023-05-02T18:44:39.553Z,5.90
2023-05-02T18:47:06.099Z,6.67
2023-05-02T18:49:32.588Z,6.87
2023-05-02T18:51:59.176Z,6.30
2023-05-02T18:54:27.684Z,6.60
2023-05-02T18:56:54.147Z,6.67
2023-05-02T18:59:21.057Z,6.33
2023-05-02T19:01:50.779Z,6.53
2023-05-02T19:04:17.573Z,6.77
2023-05-02T19:06:44.279Z,6.13
2023-05-02T19:09:13.184Z,6.40
2023-05-02T19:11:40.285Z,6.50
2023-05-02T19:14:06.814Z,6.50
2023-05-02T19:16:34.994Z,5.63
2023-05-02T19:19:02.050Z,6.03
2023-05-02T19:21:28.483Z,5.73
2023-05-02T19:23:56.638Z,5.77
2023-05-02T19:26:23.633Z,5.67
2023-05-02T19:28:50.184Z,6.03
2023-05-02T19:31:19.309Z,5.57
2023-05-02T19:33:51.510Z,5.20
2023-05-02T19:36:19.317Z,5.47
2023-05-02T19:38:58.204Z,5.97
2023-05-02T19:41:25.058Z,5.77
2023-05-02T19:43:52.364Z,5.70
2023-05-02T19:46:19.176Z,5.97
2023-05-02T19:48:45.843Z,5.77
2023-05-02T19:51:12.675Z,6.03
2023-05-02T19:53:42.087Z,5.80
2023-05-02T19:56:08.601Z,5.53
2023-05-02T19:58:35.107Z,5.47
2023-05-02T20:01:02.639Z,5.33
2023-05-02T20:03:29.504Z,5.87
2023-05-02T20:05:57.502Z,6.07
2023-05-02T20:08:27.434Z,5.57
2023-05-02T20:10:55.020Z,5.80
2023-05-02T20:13:21.805Z,5.70
2023-05-02T20:15:52.668Z,6.63
2023-05-02T20:18:19.854Z,6.50
2023-05-02T20:20:46.358Z,6.27
2023-05-02T20:23:13.593Z,6.87
2023-05-02T20:25:41.860Z,7.33
2023-05-02T20:28:09.124Z,6.90
2023-05-02T20:30:35.805Z,7.60
2023-05-02T20:33:13.982Z,7.50
2023-05-02T20:35:41.954Z,6.17
2023-05-02T20:38:08.440Z,6.60
2023-05-02T20:40:40.921Z,7.17
2023-05-02T20:43:07.788Z,6.73
2023-05-02T20:45:34.595Z,6.40
2023-05-02T20:48:01.263Z,6.53
2023-05-02T20:50:28.741Z,6.73
2023-05-02T20:52:55.375Z,7.00
2023-05-02T20:55:22.970Z,7.50
2023-05-02T20:57:53.185Z,7.40
2023-05-02T21:00:22.388Z,7.23
2023-05-02T21:02:49.607Z,7.53
2023-05-02T21:05:16.343Z,7.27
2023-05-02T21:07:42.876Z,7.40
2023-05-02T21:10:10.757Z,7.60
2023-05-02T21:12:37.275Z,7.53
2023-05-02T21:15:04.099Z,8.30
2023-05-02T21:17:30.548Z,8.70
2023-05-02T21:19:57.002Z,8.10
2023-05-02T21:22:23.417Z,8.57
2023-05-02T21:24:50.298Z,8.87
2023-05-02T21:27:16.836Z,8.93
2023-05-02T21:29:43.354Z,9.00
2023-05-02T21:32:10.716Z,9.30
2023-05-02T21:34:37.354Z,8.80
2023-05-02T21:37:04.110Z,8.60
2023-05-02T21:39:30.721Z,8.70
2023-05-02T21:41:57.129Z,8.47
2023-05-02T21:44:23.561Z,9.03
2023-05-02T21:46:50.709Z,8.53
2023-05-02T21:49:17.177Z,8.07
2023-05-02T21:51:43.654Z,8.03
2023-05-02T21:54:10.191Z,8.20
2023-05-02T21:56:36.742Z,8.27
2023-05-02T21:59:03.423Z,8.53
2023-05-02T22:01:30.060Z,9.60
2023-05-02T22:03:57.954Z,8.73
2023-05-02T22:06:24.785Z,9.13
2023-05-02T22:08:51.517Z,8.40
2023-05-02T22:11:18.042Z,9.90
2023-05-02T22:13:44.499Z,9.37
2023-05-02T22:16:11.081Z,8.57
2023-05-02T22:18:37.561Z,9.43
2023-05-02T22:21:04.114Z,9.17
2023-05-02T22:23:30.983Z,9.17
2023-05-02T22:25:57.706Z,9.10
2023-05-02T22:28:24.481Z,9.23
2023-05-02T22:30:50.941Z,10.33
2023-05-02T22:33:17.420Z,9.23
2023-05-02T22:35:43.961Z,8.93
2023-05-02T22:38:15.544Z,9.60
2023-05-02T22:40:42.442Z,9.70
2023-05-02T22:43:08.873Z,9.10
2023-05-02T22:45:36.440Z,9.33
2023-05-02T22:48:03.112Z,9.43
2023-05-02T22:50:31.311Z,9.53
2023-05-02T22:52:59.640Z,8.87
2023-05-02T22:55:26.207Z,8.30
2023-05-02T22:57:52.782Z,8.63
2023-05-02T23:00:19.471Z,9.07
2023-05-02T23:02:46.027Z,7.87
2023-05-02T23:05:12.562Z,7.80
2023-05-02T23:07:39.108Z,7.40
2023-05-02T23:10:06.647Z,6.97
2023-05-02T23:12:33.071Z,7.50
2023-05-02T23:14:59.538Z,7.17
2023-05-02T23:17:26.096Z,6.53
2023-05-02T23:19:52.582Z,6.33
2023-05-02T23:22:19.033Z,5.87
2023-05-02T23:24:46.535Z,6.53
2023-05-02T23:27:13.111Z,5.87
2023-05-02T23:29:39.554Z,5.53
2023-05-02T23:32:07.988Z,5.70
2023-05-02T23:34:36.484Z,5.63
2023-05-02T23:37:05.706Z,5.13
2023-05-02T23:39:32.788Z,5.53
2023-05-02T23:42:00.580Z,5.80
2023-05-02T23:44:27.074Z,5.33
2023-05-02T23:46:53.599Z,5.57
2023-05-02T23:49:20.449Z,5.10
2023-05-02T23:51:47.068Z,5.20
2023-05-02T23:54:13.529Z,5.20
2023-05-02T23:56:39.969Z,5.47
2023-05-02T23:59:06.422Z,5.10
